Time;durP1;ratioP1;P1;durP2;ratioP2;P2;SDS_P1;SDS_P2;PMS_P1;PMS_P2;Temp;Humidity;BMP_temperature;BMP_pressure;BME280_temperature;BME280_humidity;BME280_pressure;Samples;Min_cycle;Max_cycle;Signal;HPM_P1;HPM_P2
2022/09/03 00:02:26;;;;;;;15.13;10.32;;;486.40;2380.80;;;;;;5020228;28;20276;-75
2022/09/03 00:05:20;;;;;;;14.23;10.27;;;461.70;2380.80;;;;;;5018288;28;20026;-75
2022/09/03 00:07:56;;;;;;;13.82;9.98;;;486.40;2380.80;;;;;;5020138;28;20417;-75
2022/09/03 00:10:30;;;;;;;16.77;10.25;;;486.50;2380.80;;;;;;4998019;28;20088;-75
2022/09/03 00:13:01;;;;;;;14.13;9.85;;;486.50;2380.80;;;;;;5018966;28;20022;-74
2022/09/03 00:15:29;;;;;;;11.63;9.48;;;486.50;2380.80;;;;;;5001983;28;20034;-74
2022/09/03 00:17:55;;;;;;;12.00;9.10;;;486.40;2380.80;;;;;;5048669;28;20048;-75
2022/09/03 00:20:44;;;;;;;13.93;10.05;;;486.40;2380.80;;;;;;5076736;28;20030;-74
2022/09/03 00:23:18;;;;;;;13.48;9.77;;;486.50;2380.80;;;;;;5070717;28;20104;-74
2022/09/03 00:25:48;;;;;;;15.32;10.20;;;486.50;2380.80;;;;;;5071272;28;20070;-74
2022/09/03 00:28:24;;;;;;;12.95;10.23;;;486.50;2380.80;;;;;;5073952;28;20032;-75
2022/09/03 00:30:52;;;;;;;;;;;486.50;2380.80;;;;;;5074415;28;20017;-74
2022/09/03 00:33:25;;;;;;;12.45;9.90;;;486.50;2380.80;;;;;;5075199;28;20002;-74
2022/09/03 00:36:01;;;;;;;14.40;10.73;;;486.50;2380.80;;;;;;5074668;28;20088;-74
2022/09/03 00:38:31;;;;;;;17.85;10.45;;;486.50;2380.80;;;;;;5074614;28;20021;-74
2022/09/03 00:41:40;;;;;;;15.27;10.73;;;486.50;2380.80;;;;;;5077149;28;20540;-75
2022/09/03 00:44:15;;;;;;;14.85;11.30;;;486.50;2380.80;;;;;;5072495;28;20035;-73
2022/09/03 00:47:12;;;;;;;16.90;11.95;;;486.50;2380.80;;;;;;5082512;28;20100;-74
2022/09/03 00:49:44;;;;;;;18.60;11.77;;;486.50;2380.80;;;;;;5068767;28;20041;-74
2022/09/03 00:52:48;;;;;;;17.85;11.73;;;486.50;2380.80;;;;;;5070747;28;20021;-75
2022/09/03 00:55:34;;;;;;;19.13;11.82;;;486.50;2380.80;;;;;;5070515;28;20028;-74
2022/09/03 00:58:19;;;;;;;;;;;486.50;2380.80;;;;;;5074013;28;20020;-74
2022/09/03 01:00:45;;;;;;;16.60;11.60;;;486.50;2380.80;;;;;;5076409;28;20385;-74
2022/09/03 01:03:39;;;;;;;15.48;11.30;;;486.40;2380.80;;;;;;5076112;28;20033;-74
2022/09/03 01:06:07;;;;;;;19.23;12.55;;;486.40;2380.80;;;;;;5073064;28;20118;-77
2022/09/03 01:09:10;;;;;;;18.98;12.07;;;486.50;2380.80;;;;;;5074580;28;20031;-74
2022/09/03 01:11:39;;;;;;;17.88;12.77;;;486.50;2380.80;;;;;;5069141;28;20032;-74
2022/09/03 01:14:16;;;;;;;15.80;12.45;;;486.40;2380.80;;;;;;5078384;28;20040;-74
2022/09/03 01:17:11;;;;;;;21.27;13.73;;;461.70;2380.80;;;;;;5072322;28;20032;-74
2022/09/03 01:19:55;;;;;;;18.85;12.40;;;461.70;2380.80;;;;;;5074599;28;20020;-74
2022/09/03 01:22:40;;;;;;;17.98;12.93;;;461.60;2380.80;;;;;;5081735;28;20069;-75
2022/09/03 01:26:04;;;;;;;21.95;13.13;;;461.60;2380.80;;;;;;5072891;28;20479;-74
2022/09/03 01:29:20;;;;;;;19.80;13.68;;;461.70;2150.40;;;;;;4975854;28;20047;-74
2022/09/03 01:31:56;;;;;;;15.10;11.18;;;461.70;2380.80;;;;;;4908979;29;20108;-74
2022/09/03 01:34:30;;;;;;;15.50;11.32;;;461.70;2380.80;;;;;;4896974;29;20483;-74
2022/09/03 01:37:10;;;;;;;17.27;11.65;;;461.70;2380.80;;;;;;4899652;29;20036;-75
2022/09/03 01:39:53;;;;;;;17.50;11.43;;;461.70;2380.80;;;;;;4899105;29;20044;-75
2022/09/03 01:42:43;;;;;;;16.83;11.32;;;486.40;2380.80;;;;;;4899402;29;20043;-74
2022/09/03 01:45:39;;;;;;;15.73;11.10;;;486.40;2380.80;;;;;;4899508;29;20044;-74
2022/09/03 01:48:38;;;;;;;16.67;10.40;;;486.50;2380.80;;;;;;4897791;29;20060;-74
2022/09/03 01:51:26;;;;;;;16.17;11.90;;;486.50;2380.80;;;;;;4899353;29;20390;-74
2022/09/03 01:54:02;;;;;;;18.15;11.75;;;486.40;2380.80;;;;;;4896401;29;20028;-74
2022/09/03 01:57:05;;;;;;;19.98;12.60;;;486.40;2380.80;;;;;;4896639;29;20075;-74
2022/09/03 01:59:39;;;;;;;18.92;13.15;;;486.50;2380.80;;;;;;4898001;29;20131;-74
2022/09/03 02:02:14;;;;;;;16.92;11.93;;;486.50;2380.80;;;;;;4943681;28;20080;-74
2022/09/03 02:04:39;;;;;;;19.48;13.15;;;486.50;2380.80;;;;;;5035412;28;20077;-75
2022/09/03 02:07:05;;;;;;;19.05;13.00;;;486.50;2380.80;;;;;;5073884;28;20095;-74
2022/09/03 02:09:31;;;;;;;22.73;12.73;;;486.50;2380.80;;;;;;5074674;28;20494;-74
2022/09/03 02:12:20;;;;;;;19.05;12.77;;;486.50;2380.80;;;;;;5073966;28;20013;-74
2022/09/03 02:14:47;;;;;;;18.40;12.85;;;486.50;2380.80;;;;;;5074400;28;20028;-73
2022/09/03 02:17:12;;;;;;;17.98;13.77;;;486.50;2380.80;;;;;;5075870;28;20059;-73
2022/09/03 02:19:38;;;;;;;14.50;12.48;;;486.50;2380.80;;;;;;5073713;28;20470;-73
2022/09/03 02:22:05;;;;;;;25.08;12.88;;;486.60;2380.80;;;;;;5076155;28;20032;-74
2022/09/03 02:24:31;;;;;;;16.48;11.25;;;486.50;2380.80;;;;;;5073436;28;20020;-77
2022/09/03 02:26:57;;;;;;;17.63;11.45;;;486.60;2380.80;;;;;;5073427;28;20020;-75
2022/09/03 02:29:24;;;;;;;19.90;12.88;;;486.60;2380.80;;;;;;5075471;28;20034;-74
2022/09/03 02:31:50;;;;;;;16.63;12.77;;;486.60;2380.80;;;;;;5073267;28;20461;-75
2022/09/03 02:34:16;;;;;;;16.30;12.75;;;486.50;2380.80;;;;;;5089898;28;20512;-74
2022/09/03 02:36:44;;;;;;;16.67;12.23;;;486.50;2380.80;;;;;;5076027;28;20016;-74
2022/09/03 02:39:11;;;;;;;19.08;12.23;;;486.50;2380.80;;;;;;5080504;28;20465;-74
2022/09/03 02:41:38;;;;;;;16.88;12.32;;;486.40;2380.80;;;;;;5082027;28;20021;-76
2022/09/03 02:44:30;;;;;;;17.08;12.35;;;486.50;2380.80;;;;;;5071144;28;20074;-74
2022/09/03 02:47:05;;;;;;;20.05;13.20;;;486.40;2380.80;;;;;;5070532;28;20755;-75
2022/09/03 02:49:31;;;;;;;16.90;12.20;;;486.40;2380.80;;;;;;5070182;28;20032;-74
2022/09/03 02:52:08;;;;;;;17.45;11.68;;;486.40;2380.80;;;;;;5072570;28;20070;-74
2022/09/03 02:54:38;;;;;;;18.27;12.70;;;486.40;2380.80;;;;;;5077688;28;20107;-74
2022/09/03 02:57:05;;;;;;;19.98;12.77;;;486.40;2380.80;;;;;;5071868;28;20115;-74
2022/09/03 02:59:31;;;;;;;24.77;12.43;;;486.40;2380.80;;;;;;5075430;28;20016;-75
2022/09/03 03:01:57;;;;;;;19.10;13.45;;;486.40;2380.80;;;;;;5077018;28;21590;-74
2022/09/03 03:04:23;;;;;;;19.65;12.68;;;486.40;2380.80;;;;;;5072487;28;20028;-74
2022/09/03 03:06:51;;;;;;;26.15;12.32;;;461.70;2380.80;;;;;;5077084;28;20024;-74
2022/09/03 03:09:17;;;;;;;20.27;13.05;;;486.40;2380.80;;;;;;5082023;28;20090;-76
2022/09/03 03:11:43;;;;;;;19.25;13.13;;;486.40;2380.80;;;;;;5073165;28;20106;-76
2022/09/03 03:14:09;;;;;;;25.40;13.90;;;486.40;2380.80;;;;;;5076993;28;20072;-75
2022/09/03 03:16:35;;;;;;;19.38;14.73;;;486.40;2099.20;;;;;;5072561;28;20039;-74
2022/09/03 03:19:01;;;;;;;21.30;14.52;;;486.40;2201.60;;;;;;5073329;28;20077;-74
2022/09/03 03:21:27;;;;;;;18.77;13.43;;;486.50;2380.80;;;;;;5074819;28;20095;-74
2022/09/03 03:23:53;;;;;;;18.90;13.93;;;486.50;2380.80;;;;;;5075144;28;20041;-74
2022/09/03 03:26:23;;;;;;;20.33;12.93;;;486.50;2380.80;;;;;;5077314;28;20103;-74
2022/09/03 03:28:55;;;;;;;23.55;13.55;;;486.40;2380.80;;;;;;5073490;28;20417;-74
2022/09/03 03:31:22;;;;;;;20.85;13.27;;;486.40;2380.80;;;;;;5072257;28;20012;-75
2022/09/03 03:33:55;;;;;;;17.90;13.30;;;486.40;2380.80;;;;;;5072098;28;20025;-74
2022/09/03 03:36:22;;;;;;;19.30;12.60;;;486.40;2380.80;;;;;;5074744;28;20023;-74
2022/09/03 03:38:48;;;;;;;20.48;13.32;;;486.40;2380.80;;;;;;5071875;28;20082;-76
2022/09/03 03:41:20;;;;;;;17.85;12.30;;;486.40;2380.80;;;;;;5074559;28;20025;-73
2022/09/03 03:43:47;;;;;;;15.88;11.40;;;486.40;2380.80;;;;;;5092995;28;20420;-74
2022/09/03 03:46:16;;;;;;;17.45;10.90;;;486.40;2380.80;;;;;;5074606;28;20465;-74
2022/09/03 03:48:42;;;;;;;14.48;10.60;;;486.40;2380.80;;;;;;5072481;28;20477;-76
2022/09/03 03:51:08;;;;;;;15.82;11.77;;;486.50;2380.80;;;;;;5077480;28;20031;-75
2022/09/03 03:53:36;;;;;;;17.98;11.77;;;486.40;2380.80;;;;;;5087559;28;20024;-74
2022/09/03 03:56:08;;;;;;;20.17;12.18;;;486.40;2380.80;;;;;;5074680;28;20073;-74
2022/09/03 03:58:36;;;;;;;15.07;11.23;;;486.40;2380.80;;;;;;5071905;28;20017;-75
2022/09/03 04:01:28;;;;;;;19.98;12.07;;;486.50;2380.80;;;;;;5071451;28;20020;-73
2022/09/03 04:03:55;;;;;;;17.63;10.65;;;486.50;2380.80;;;;;;5068598;28;20082;-77
2022/09/03 04:06:21;;;;;;;15.48;11.10;;;486.50;2380.80;;;;;;5075261;28;20033;-74
2022/09/03 04:08:48;;;;;;;16.40;10.32;;;486.50;2380.80;;;;;;5071293;28;20028;-74
2022/09/03 04:11:17;;;;;;;13.98;11.70;;;486.50;2380.80;;;;;;5074152;28;20022;-74
2022/09/03 04:13:44;;;;;;;14.90;11.23;;;486.50;2380.80;;;;;;5069793;28;20031;-74
2022/09/03 04:16:13;;;;;;;17.38;10.68;;;486.50;2380.80;;;;;;5071193;28;20033;-74
2022/09/03 04:18:40;;;;;;;15.23;11.10;;;486.60;2380.80;;;;;;5071234;28;20101;-74
2022/09/03 04:21:08;;;;;;;18.15;10.90;;;486.60;2380.80;;;;;;5079401;28;20027;-74
2022/09/03 04:23:39;;;;;;;16.13;11.25;;;486.60;2380.80;;;;;;5078633;28;20074;-74
2022/09/03 04:26:06;;;;;;;13.65;11.00;;;486.50;2380.80;;;;;;5073836;28;20099;-74
2022/09/03 04:28:32;;;;;;;15.75;11.05;;;486.60;2380.80;;;;;;5071333;28;20025;-74
2022/09/03 04:31:02;;;;;;;14.60;10.68;;;486.60;2380.80;;;;;;5073389;28;20031;-74
2022/09/03 04:33:29;;;;;;;15.32;11.52;;;486.60;2380.80;;;;;;5068525;28;20048;-74
2022/09/03 04:36:16;;;;;;;16.60;12.40;;;486.50;2380.80;;;;;;5097717;28;20105;-74
2022/09/03 04:38:43;;;;;;;18.35;12.75;;;486.60;2380.80;;;;;;5072755;28;20017;-74
2022/09/03 04:41:12;;;;;;;16.88;11.82;;;486.60;2380.80;;;;;;5069945;28;20012;-75
2022/09/03 04:43:38;;;;;;;20.13;14.15;;;486.60;2380.80;;;;;;5079321;28;20472;-74
2022/09/03 04:46:06;;;;;;;17.48;12.10;;;486.60;2380.80;;;;;;5071046;28;20028;-74
2022/09/03 04:48:35;;;;;;;15.43;12.18;;;486.60;2380.80;;;;;;5070927;28;20040;-74
2022/09/03 04:51:06;;;;;;;17.02;14.00;;;486.60;2380.80;;;;;;5071224;28;20062;-74
2022/09/03 04:53:37;;;;;;;20.15;14.13;;;486.60;2380.80;;;;;;5071694;28;20016;-74
2022/09/03 04:56:11;;;;;;;17.75;13.13;;;486.70;2380.80;;;;;;5073770;28;20015;-75
2022/09/03 04:58:37;;;;;;;18.90;13.77;;;486.70;2380.80;;;;;;5085298;28;20024;-75
2022/09/03 05:01:10;;;;;;;18.33;13.45;;;486.70;2380.80;;;;;;5072959;28;20371;-74
2022/09/03 05:03:37;;;;;;;21.20;13.82;;;486.70;2380.80;;;;;;5072332;28;20024;-74
2022/09/03 05:06:04;;;;;;;22.05;13.48;;;486.70;2380.80;;;;;;5070652;28;20044;-73
2022/09/03 05:08:31;;;;;;;17.77;15.00;;;486.70;2380.80;;;;;;5069384;28;20029;-74
2022/09/03 05:11:00;;;;;;;23.83;14.65;;;486.70;2380.80;;;;;;5069156;28;20111;-76
2022/09/03 05:13:27;;;;;;;19.30;14.85;;;486.70;2380.80;;;;;;5073124;28;20025;-74
2022/09/03 05:16:01;;;;;;;20.23;16.50;;;486.70;2380.80;;;;;;5076115;28;20491;-74
2022/09/03 05:18:28;;;;;;;21.42;16.58;;;486.70;2380.80;;;;;;5075027;28;20040;-74
2022/09/03 05:21:09;;;;;;;29.13;21.88;;;486.70;2380.80;;;;;;5073683;28;20099;-75
2022/09/03 05:23:38;;;;;;;18.70;16.10;;;486.80;2380.80;;;;;;5071440;28;20020;-74
2022/09/03 05:26:09;;;;;;;19.13;15.13;;;486.70;2380.80;;;;;;5070455;28;20044;-74
2022/09/03 05:28:37;;;;;;;45.10;31.30;;;486.70;2380.80;;;;;;5071280;28;20089;-76
2022/09/03 05:31:06;;;;;;;24.73;18.33;;;486.70;2380.80;;;;;;5070732;28;20013;-76
2022/09/03 05:33:36;;;;;;;19.23;14.82;;;486.70;2380.80;;;;;;5081007;28;20025;-74
2022/09/03 05:36:11;;;;;;;17.13;13.70;;;486.70;2380.80;;;;;;5070668;28;20024;-76
2022/09/03 05:38:37;;;;;;;20.80;13.77;;;486.60;2380.80;;;;;;5072608;28;20021;-74
2022/09/03 05:41:06;;;;;;;19.13;12.73;;;486.70;2380.80;;;;;;5069302;28;20027;-74
2022/09/03 05:43:33;;;;;;;18.25;13.20;;;486.70;2380.80;;;;;;5071915;28;20033;-75
2022/09/03 05:46:10;;;;;;;16.83;13.63;;;486.80;2380.80;;;;;;5080264;28;20081;-74
2022/09/03 05:48:38;;;;;;;19.75;13.20;;;486.80;2380.80;;;;;;5075126;28;20119;-75
2022/09/03 05:51:08;;;;;;;16.42;12.27;;;486.80;2380.80;;;;;;5092153;28;20023;-75
2022/09/03 05:53:36;;;;;;;15.45;13.20;;;486.90;2380.80;;;;;;5095020;28;20496;-73
2022/09/03 05:56:09;;;;;;;19.48;13.40;;;487.00;2380.80;;;;;;5080259;28;20019;-75
2022/09/03 05:58:42;;;;;;;15.55;12.20;;;486.90;2380.80;;;;;;5095046;28;20020;-74
2022/09/03 06:01:15;;;;;;;17.25;12.13;;;486.90;2380.80;;;;;;5094607;28;20016;-75
2022/09/03 06:03:42;;;;;;;17.42;11.45;;;486.90;2380.80;;;;;;5086311;28;20410;-74
2022/09/03 06:06:08;;;;;;;20.38;12.60;;;487.00;2380.80;;;;;;5088611;28;20103;-74
2022/09/03 06:08:37;;;;;;;16.33;12.00;;;486.90;2380.80;;;;;;5093146;28;20096;-74
2022/09/03 06:11:04;;;;;;;14.57;11.77;;;486.90;2380.80;;;;;;5093098;28;20031;-73
2022/09/03 06:13:31;;;;;;;14.55;11.38;;;487.00;2380.80;;;;;;5094010;28;20028;-78
2022/09/03 06:15:59;;;;;;;15.70;12.90;;;486.90;2380.80;;;;;;5094338;28;20031;-74
2022/09/03 06:18:26;;;;;;;17.67;12.20;;;487.00;2380.80;;;;;;5094255;28;20481;-74
2022/09/03 06:20:56;;;;;;;15.77;12.60;;;486.90;2380.80;;;;;;5093916;28;20045;-73
2022/09/03 06:23:22;;;;;;;19.10;14.77;;;487.00;2380.80;;;;;;5093171;28;20032;-74
2022/09/03 06:25:58;;;;;;;20.33;13.82;;;487.00;2380.80;;;;;;5092806;28;20024;-74
2022/09/03 06:28:26;;;;;;;;;;;486.90;2380.80;;;;;;5094399;28;20040;-75
2022/09/03 06:30:52;;;;;;;18.48;10.90;;;486.80;2380.80;;;;;;5092743;28;19908;-74
2022/09/03 06:33:18;;;;;;;23.13;11.82;;;486.70;2380.80;;;;;;5094070;28;20020;-75
2022/09/03 06:35:45;;;;;;;20.13;10.52;;;486.70;2380.80;;;;;;5093965;28;20047;-78
2022/09/03 06:38:11;;;;;;;13.00;9.15;;;486.70;2380.80;;;;;;5093907;28;20027;-76
2022/09/03 06:40:37;;;;;;;14.82;9.50;;;486.70;2380.80;;;;;;5094316;28;20081;-76
2022/09/03 06:43:03;;;;;;;13.38;9.55;;;486.70;2380.80;;;;;;5092281;28;20054;-76
2022/09/03 06:45:30;;;;;;;10.38;9.20;;;486.60;2380.80;;;;;;5079728;28;20728;-76
2022/09/03 06:47:55;;;;;;;14.30;9.27;;;486.60;2380.80;;;;;;5081306;28;20496;-76
2022/09/03 06:50:22;;;;;;;13.88;10.40;;;486.70;2380.80;;;;;;5091996;28;20024;-75
2022/09/03 06:52:53;;;;;;;13.05;8.70;;;486.70;2380.80;;;;;;5093581;28;20020;-76
2022/09/03 06:55:20;;;;;;;10.52;9.05;;;486.70;2380.80;;;;;;5092058;28;20483;-76
2022/09/03 06:57:46;;;;;;;13.90;8.48;;;486.70;2380.80;;;;;;5091934;28;20091;-77
2022/09/03 07:00:13;;;;;;;10.00;7.05;;;486.70;2380.80;;;;;;5072587;28;20021;-75
2022/09/03 07:02:40;;;;;;;13.65;7.60;;;486.70;2380.80;;;;;;5078192;28;20023;-75
2022/09/03 07:05:07;;;;;;;12.15;6.35;;;486.70;2380.80;;;;;;5069413;28;20028;-74
2022/09/03 07:07:33;;;;;;;9.82;6.55;;;486.80;2380.80;;;;;;5079259;28;20027;-76
2022/09/03 07:09:59;;;;;;;9.45;6.90;;;486.80;2380.80;;;;;;5089653;28;20032;-75
2022/09/03 07:12:25;;;;;;;8.63;6.70;;;486.80;2380.80;;;;;;5080953;28;20052;-74
2022/09/03 07:14:51;;;;;;;9.38;6.53;;;486.90;2380.80;;;;;;5093497;28;20056;-75
2022/09/03 07:17:17;;;;;;;10.13;7.00;;;486.90;2380.80;;;;;;5091450;28;20032;-75
2022/09/03 07:19:42;;;;;;;10.73;7.30;;;487.00;2380.80;;;;;;5093094;28;20107;-79
2022/09/03 07:22:08;;;;;;;9.80;7.57;;;487.00;2380.80;;;;;;5093550;28;20012;-76
2022/09/03 07:24:35;;;;;;;14.77;9.57;;;487.00;2380.80;;;;;;5092940;28;20028;-77
2022/09/03 07:27:01;;;;;;;10.45;8.85;;;487.10;2380.80;;;;;;5092937;28;20049;-74
2022/09/03 07:29:27;;;;;;;15.43;8.68;;;487.10;2380.80;;;;;;5091605;28;20036;-73
2022/09/03 07:31:53;;;;;;;14.27;11.40;;;487.10;2380.80;;;;;;5077243;28;20479;-74
2022/09/03 07:34:22;;;;;;;15.13;11.23;;;487.10;2380.80;;;;;;5072049;28;20029;-74
2022/09/03 07:36:49;;;;;;;13.15;10.38;;;487.30;2380.80;;;;;;5088662;28;20020;-75
2022/09/03 07:39:16;;;;;;;15.38;10.18;;;487.10;2380.80;;;;;;5085491;28;20040;-75
2022/09/03 07:41:44;;;;;;;13.10;9.35;;;487.10;2380.80;;;;;;5070093;28;20055;-74
2022/09/03 07:44:12;;;;;;;10.88;9.30;;;487.10;2380.80;;;;;;5071772;28;20477;-74
2022/09/03 07:46:39;;;;;;;14.90;9.93;;;487.10;2380.80;;;;;;5073882;28;20107;-74
2022/09/03 07:49:05;;;;;;;11.80;9.20;;;487.10;2380.80;;;;;;5074427;28;20036;-75
2022/09/03 07:51:36;;;;;;;12.25;9.45;;;487.20;2380.80;;;;;;5084767;28;20095;-74
2022/09/03 07:54:05;;;;;;;14.10;8.35;;;487.20;2380.80;;;;;;5087372;28;20024;-73
2022/09/03 07:56:33;;;;;;;15.80;9.98;;;487.20;2380.80;;;;;;5083875;28;20031;-75
2022/09/03 07:59:00;;;;;;;12.23;9.73;;;487.20;2380.80;;;;;;5088434;28;20021;-76
2022/09/03 08:01:27;;;;;;;16.02;10.48;;;487.20;2380.80;;;;;;5071923;28;20581;-74
2022/09/03 08:03:54;;;;;;;14.10;10.43;;;487.30;2380.80;;;;;;5076732;28;20145;-75
2022/09/03 08:06:23;;;;;;;15.85;9.05;;;487.30;2380.80;;;;;;5070977;28;20043;-74
2022/09/03 08:08:56;;;;;;;14.88;8.75;;;512.00;2380.80;;;;;;5088490;28;20035;-74
2022/09/03 08:11:21;;;;;;;13.20;9.18;;;512.10;2380.80;;;;;;5090887;28;20035;-74
2022/09/03 08:13:53;;;;;;;13.15;10.65;;;512.10;2380.80;;;;;;5090810;28;20028;-75
2022/09/03 08:16:19;;;;;;;14.85;9.55;;;512.20;2380.80;;;;;;5091685;28;20036;-74
2022/09/03 08:18:46;;;;;;;13.45;10.02;;;512.20;2380.80;;;;;;5092256;28;20032;-74
2022/09/03 08:21:14;;;;;;;12.15;9.75;;;512.20;2380.80;;;;;;5090308;28;20076;-74
2022/09/03 08:23:46;;;;;;;11.35;9.82;;;512.20;2380.80;;;;;;5092113;28;20032;-73
2022/09/03 08:26:13;;;;;;;14.20;10.00;;;512.40;2380.80;;;;;;5090946;28;20032;-75
2022/09/03 08:28:41;;;;;;;12.88;10.27;;;512.50;2380.80;;;;;;5091906;28;20095;-74
2022/09/03 08:31:12;;;;;;;13.48;10.40;;;512.60;2380.80;;;;;;5092089;28;20016;-74
2022/09/03 08:33:45;;;;;;;15.40;11.57;;;512.60;2380.80;;;;;;5092003;28;20043;-74
2022/09/03 08:36:23;;;;;;;18.42;12.65;;;512.70;2380.80;;;;;;5092229;28;20027;-75
2022/09/03 08:38:53;;;;;;;14.73;12.07;;;512.80;2380.80;;;;;;5090714;28;20474;-74
2022/09/03 08:41:42;;;;;;;16.15;12.77;;;512.80;2380.80;;;;;;5091857;28;20393;-74
2022/09/03 08:44:47;;;;;;;14.70;12.15;;;512.80;2380.80;;;;;;5091700;28;20343;-74
2022/09/03 08:47:33;;;;;;;14.93;11.88;;;512.70;2380.80;;;;;;5064224;28;20028;-74
2022/09/03 08:50:10;;;;;;;15.43;11.30;;;512.60;2380.80;;;;;;5076146;28;20044;-75
2022/09/03 08:52:49;;;;;;;17.23;10.13;;;512.50;2380.80;;;;;;5083069;28;20017;-74
2022/09/03 08:55:32;;;;;;;13.70;11.02;;;512.50;2380.80;;;;;;5078313;28;20485;-75
2022/09/03 08:58:22;;;;;;;14.07;9.48;;;512.40;2380.80;;;;;;5069506;28;20047;-75
2022/09/03 09:00:50;;;;;;;20.20;10.48;;;512.50;2380.80;;;;;;5068260;28;20445;-75
2022/09/03 09:03:41;;;;;;;13.82;9.60;;;512.50;2380.80;;;;;;5081443;28;20039;-74
2022/09/03 09:06:19;;;;;;;11.98;9.27;;;512.70;2380.80;;;;;;5091799;28;20012;-75
2022/09/03 09:08:47;;;;;;;12.55;8.90;;;512.50;2380.80;;;;;;5091682;28;20071;-74
2022/09/03 09:11:37;;;;;;;11.20;8.73;;;512.90;2380.80;;;;;;5074085;28;20055;-74
2022/09/03 09:14:41;;;;;;;17.63;10.07;;;537.60;2406.40;;;;;;5069844;28;20048;-74
2022/09/03 09:17:40;;;;;;;12.50;8.68;;;537.60;2406.40;;;;;;5028620;28;20045;-74
2022/09/03 09:20:26;;;;;;;9.38;7.30;;;537.70;2406.40;;;;;;5032343;28;20033;-77
2022/09/03 09:22:59;;;;;;;11.55;8.35;;;537.70;2406.40;;;;;;5032498;28;20563;-75
2022/09/03 09:25:25;;;;;;;11.45;9.57;;;537.60;2406.40;;;;;;5020907;28;20026;-75
2022/09/03 09:28:18;;;;;;;10.85;8.68;;;537.60;2406.40;;;;;;5032129;28;20407;-74
2022/09/03 09:30:50;;;;;;;9.43;8.35;;;537.70;2406.40;;;;;;5030531;28;20470;-73
2022/09/03 09:33:19;;;;;;;9.98;8.05;;;537.70;2406.40;;;;;;5031850;28;20137;-75
2022/09/03 09:35:46;;;;;;;10.73;7.50;;;537.70;2406.40;;;;;;5032091;28;20033;-74
2022/09/03 09:38:12;;;;;;;9.45;7.25;;;537.80;2406.40;;;;;;5015278;28;20018;-74
2022/09/03 09:40:43;;;;;;;9.32;5.80;;;537.70;2406.40;;;;;;5030017;28;20475;-73
2022/09/03 09:43:22;;;;;;;9.25;6.22;;;537.60;2406.40;;;;;;5031468;28;20402;-74
2022/09/03 09:45:50;;;;;;;11.30;7.82;;;537.70;2406.40;;;;;;5031672;28;20022;-78
2022/09/03 09:48:28;;;;;;;12.63;8.10;;;537.70;2406.40;;;;;;5031992;28;20523;-77
2022/09/03 09:51:12;;;;;;;8.73;7.60;;;537.70;2406.40;;;;;;5032682;28;20065;-76
2022/09/03 09:53:39;;;;;;;10.23;7.65;;;537.70;2406.40;;;;;;5055913;28;20036;-75
2022/09/03 09:56:05;;;;;;;8.23;6.43;;;537.70;2406.40;;;;;;5094889;28;20512;-74
2022/09/03 09:58:33;;;;;;;11.48;7.18;;;537.70;2406.40;;;;;;5094511;28;20028;-77
2022/09/03 10:01:13;;;;;;;11.82;7.45;;;537.70;2406.40;;;;;;5095007;28;20030;-76
2022/09/03 10:03:56;;;;;;;10.60;7.40;;;537.70;2406.40;;;;;;5094607;28;20545;-78
2022/09/03 10:09:15;;;;;;;11.00;8.00;;;537.80;2406.40;;;;;;5073121;28;20082;-77
2022/09/03 10:12:05;;;;;;;10.38;7.10;;;537.90;2406.40;;;;;;5075446;28;20023;-79
2022/09/03 10:14:57;;;;;;;11.00;7.80;;;537.90;2406.40;;;;;;5078296;28;20074;-77
2022/09/03 10:17:31;;;;;;;9.68;6.40;;;538.00;2406.40;;;;;;5019673;28;20057;-76
2022/09/03 10:23:10;;;;;;;8.98;7.50;;;538.20;2406.40;;;;;;5013009;28;20121;-75
2022/09/03 10:25:59;;;;;;;9.02;7.30;;;538.20;2406.40;;;;;;4992880;28;20041;-75
2022/09/03 10:28:28;;;;;;;8.65;7.03;;;538.40;2406.40;;;;;;4992296;28;20129;-76
2022/09/03 10:31:12;;;;;;;10.23;8.95;;;538.50;2406.40;;;;;;4992107;28;20042;-75
2022/09/03 10:33:58;;;;;;;12.70;9.25;;;563.30;2432.00;;;;;;4987391;28;20108;-76
2022/09/03 10:36:27;;;;;;;12.48;8.70;;;563.40;2432.00;;;;;;4996270;28;20027;-75
2022/09/03 10:39:04;;;;;;;15.50;8.27;;;563.40;2432.00;;;;;;4992683;28;20605;-75
2022/09/03 10:41:33;;;;;;;14.23;8.85;;;563.50;2432.00;;;;;;5004978;28;20042;-76
2022/09/03 10:44:10;;;;;;;15.13;8.60;;;563.50;2432.00;;;;;;5009896;28;20022;-75
2022/09/03 10:47:04;;;;;;;9.93;7.57;;;563.60;2432.00;;;;;;5022030;28;20491;-75
2022/09/03 10:49:38;;;;;;;16.73;7.30;;;563.60;2432.00;;;;;;4990603;28;20128;-76
2022/09/03 10:52:30;;;;;;;11.52;7.03;;;563.70;2432.00;;;;;;4997270;28;20029;-76
2022/09/03 10:55:24;;;;;;;13.77;6.65;;;563.60;2432.00;;;;;;5049037;28;20032;-75
2022/09/03 10:57:55;;;;;;;10.95;6.97;;;563.50;2432.00;;;;;;5072533;28;20034;-76
2022/09/03 11:00:21;;;;;;;10.48;7.32;;;563.50;2432.00;;;;;;5083396;28;20024;-75
2022/09/03 11:03:18;;;;;;;11.13;7.13;;;563.50;2432.00;;;;;;5074088;28;20016;-76
2022/09/03 11:06:05;;;;;;;11.48;6.43;;;563.40;2432.00;;;;;;5071335;28;20504;-79
2022/09/03 11:08:42;;;;;;;8.05;6.47;;;563.50;2432.00;;;;;;5071565;28;20043;-77
2022/09/03 11:11:30;;;;;;;8.10;6.43;;;563.40;2432.00;;;;;;5069968;28;20544;-78
2022/09/03 11:14:03;;;;;;;8.77;6.38;;;563.40;2432.00;;;;;;5074317;28;20036;-75
2022/09/03 11:16:43;;;;;;;9.15;6.65;;;563.60;2432.00;;;;;;5075226;28;20040;-76
2022/09/03 11:19:15;;;;;;;9.80;6.65;;;563.70;2432.00;;;;;;5092225;28;20081;-75
2022/09/03 11:21:42;;;;;;;10.57;6.32;;;563.80;2432.00;;;;;;5098918;28;20538;-75
2022/09/03 11:24:38;;;;;;;9.95;7.30;;;563.80;2432.00;;;;;;5075172;28;20035;-76
2022/09/03 11:27:27;;;;;;;10.20;7.07;;;563.70;2432.00;;;;;;5073082;28;20111;-76
2022/09/03 11:29:56;;;;;;;13.25;7.97;;;563.90;2432.00;;;;;;5063999;28;20032;-75
2022/09/03 11:32:30;;;;;;;10.43;8.05;;;564.00;2432.00;;;;;;5072136;28;20020;-76
2022/09/03 11:34:57;;;;;;;10.55;8.30;;;;;;;;;;5074655;28;20070;-75
2022/09/03 11:37:28;;;;;;;9.75;7.40;;;589.50;2432.00;;;;;;5074554;28;20017;-76
2022/09/03 11:40:12;;;;;;;9.80;7.25;;;614.70;2432.00;;;;;;5070998;28;20115;-75
2022/09/03 11:42:40;;;;;;;9.13;6.80;;;614.90;2432.00;;;;;;5070959;28;20389;-77
2022/09/03 11:45:23;;;;;;;9.35;7.00;;;615.20;2432.00;;;;;;5070711;28;20016;-75
2022/09/03 11:47:50;;;;;;;12.65;7.50;;;615.30;2432.00;;;;;;5072620;28;20055;-78
2022/09/03 11:50:19;;;;;;;12.27;6.57;;;;;;;;;;5074443;28;20040;-74
2022/09/03 11:52:47;;;;;;;8.85;7.00;;;640.30;2432.00;;;;;;5070160;28;20025;-75
2022/09/03 11:55:32;;;;;;;9.88;6.47;;;640.50;2432.00;;;;;;5076017;28;20025;-75
2022/09/03 11:57:59;;;;;;;10.02;6.53;;;;;;;;;;5070523;28;20019;-75
2022/09/03 12:00:25;;;;;;;8.80;6.38;;;640.60;2329.60;;;;;;5071574;28;20032;-78
2022/09/03 12:03:00;;;;;;;8.98;6.70;;;640.10;2432.00;;;;;;5071421;28;20016;-76
2022/09/03 12:06:02;;;;;;;8.98;5.90;;;615.10;2432.00;;;;;;5069822;28;20373;-76
2022/09/03 12:09:03;;;;;;;6.03;4.75;;;640.20;2432.00;;;;;;5011580;28;20617;-75
2022/09/03 12:11:31;;;;;;;8.75;5.10;;;640.10;2406.40;;;;;;4970556;28;20159;-79
2022/09/03 12:14:19;;;;;;;8.05;5.88;;;640.20;2406.40;;;;;;4955153;28;20041;-77
2022/09/03 12:17:03;;;;;;;7.57;4.38;;;615.20;2432.00;;;;;;4970962;28;20046;-76
2022/09/03 12:19:51;;;;;;;6.25;4.97;;;614.80;2432.00;;;;;;4971341;28;20516;-74
2022/09/03 12:22:20;;;;;;;9.60;5.30;;;614.50;2432.00;;;;;;4955220;28;20057;-75
2022/09/03 12:24:46;;;;;;;7.45;5.15;;;614.40;2432.00;;;;;;4986538;28;20040;-75
2022/09/03 12:27:32;;;;;;;7.60;4.63;;;589.70;2432.00;;;;;;4971208;28;20525;-75
2022/09/03 12:30:01;;;;;;;5.38;3.90;;;589.70;2432.00;;;;;;4970686;28;20035;-76
2022/09/03 12:32:31;;;;;;;8.63;5.20;;;589.70;2432.00;;;;;;4970469;28;20559;-77
2022/09/03 12:34:57;;;;;;;15.93;4.95;;;589.70;2432.00;;;;;;4970352;28;20035;-74
2022/09/03 12:37:35;;;;;;;8.98;4.15;;;589.50;2432.00;;;;;;4970306;28;20058;-75
2022/09/03 12:40:01;;;;;;;5.57;4.00;;;;;;;;;;4971098;28;20034;-76
2022/09/03 12:42:29;;;;;;;6.45;4.57;;;;;;;;;;4970923;28;20156;-75
2022/09/03 12:44:55;;;;;;;5.32;4.13;;;;;;;;;;4958927;28;20109;-75
2022/09/03 12:47:23;;;;;;;10.20;4.25;;;589.20;2432.00;;;;;;5030887;28;20139;-76